Terminal Aerodrome Forecast
Issued by NWS Jackson, MS

Home | Current Version | Previous Version | Text Only | Print | Product List | Glossary On
Versions: 1 2 3 4 5 6 7 8 9 10 11 12 13 14
000
FTUS44 KMEG 290525
TAFTUP
TAF
KTUP 290525Z 2906/3006 VRB02KT P6SM FEW250
      TEMPO 2910/2913 3SM BR FEW002
     FM291400 30004KT P6SM SCT025
     FM291700 32006KT P6SM SCT050
     FM300000 00000KT P6SM SKC=

USA.gov is the U.S. government's official web portal to all federal, state and local government web resources and services.